KLGU/LGU METAR and TAF weather

Enter ICAO airport designator
Station Type Date Time Source
KLGU METAR 2021/01/16 02:51 UTC NOAA

KLGU 160251Z AUTO 00000KT 10SM CLR M05/M07 A3033 RMK AO2 SLP324 T10501072 56006


Station Type Date Time Source
KLGU Decoded METAR 2021/01/16 02:51 UTC NOAA

LOGAN CACHE AIRPORT, UT, United States (KLGU) 41-47N 111-51W 1355M
Jan 15, 2021 - 09:51 PM EST / 2021.01.16 0251 UTC
Wind: Calm:0
Visibility: 10 mile(s):0
Sky conditions: clear
Temperature: 23.0 F (-5.0 C)
Dew Point: 19.0 F (-7.2 C)
Relative Humidity: 84%
Pressure (altimeter): 30.33 in. Hg (1027 hPa)
Pressure tendency: 0.02 inches (0.6 hPa) lower than three hours ago
ob: KLGU 160251Z AUTO 00000KT 10SM CLR M05/M07 A3033 RMK AO2 SLP324 T10501072 56006
cycle: 3

Station Type Date Time Source
KLGU TAF 2021/01/15 18:36 UTC NOAA

TAF KLGU 151734Z 1518/1618 VRB04KT P6SM SCT200
FM160600 VRB03KT P6SM VCSH OVC050
FM161200 VRB04KT P6SM FEW020

Example: see airport list